createdAt,value
2023-02-23T00:03:30.537Z,2.17
2023-02-23T00:08:36.157Z,2.17
2023-02-23T00:13:46.232Z,2.14
2023-02-23T00:19:00.489Z,2.12
2023-02-23T00:24:09.056Z,2.11
2023-02-23T00:29:18.487Z,2.08
2023-02-23T00:34:25.588Z,2.02
2023-02-23T00:39:29.665Z,1.98
2023-02-23T00:44:35.005Z,1.91
2023-02-23T00:49:38.463Z,1.85
2023-02-23T00:54:41.750Z,1.84
2023-02-23T00:59:44.244Z,1.84
2023-02-23T01:04:46.812Z,1.83
2023-02-23T01:09:49.096Z,1.82
2023-02-23T01:14:51.679Z,1.73
2023-02-23T01:19:55.334Z,1.72
2023-02-23T01:24:57.874Z,1.68
2023-02-23T01:30:00.962Z,1.73
2023-02-23T01:35:09.409Z,1.66
2023-02-23T01:40:29.189Z,1.57
2023-02-23T01:45:34.881Z,1.51
2023-02-23T01:51:20.905Z,1.46
2023-02-23T01:56:31.625Z,1.43
2023-02-23T02:01:35.910Z,1.46
2023-02-23T02:06:40.190Z,1.47
2023-02-23T02:11:46.390Z,1.50
2023-02-23T02:17:37.512Z,1.47
2023-02-23T02:23:23.521Z,1.43
2023-02-23T02:28:33.185Z,1.37
2023-02-23T02:33:48.883Z,1.32
2023-02-23T02:39:23.945Z,1.27
2023-02-23T02:44:29.466Z,1.26
2023-02-23T02:49:47.932Z,1.25
2023-02-23T02:54:58.247Z,1.20
2023-02-23T03:00:24.024Z,1.15
2023-02-23T03:06:04.234Z,1.15
2023-02-23T03:11:31.061Z,1.13
2023-02-23T03:17:23.418Z,1.12
2023-02-23T03:22:47.051Z,1.11
2023-02-23T03:28:33.632Z,1.05
2023-02-23T03:34:28.502Z,1.06
2023-02-23T03:40:15.293Z,1.03
2023-02-23T03:45:43.348Z,0.97
2023-02-23T03:51:18.407Z,0.98
2023-02-23T03:56:53.046Z,0.99
2023-02-23T04:02:27.504Z,1.07
2023-02-23T04:07:53.494Z,1.06
2023-02-23T04:13:16.667Z,1.05
2023-02-23T04:18:25.349Z,1.04
2023-02-23T04:23:34.856Z,1.03
2023-02-23T04:28:37.274Z,1.02
2023-02-23T04:33:40.222Z,1.00
2023-02-23T04:38:42.541Z,0.96
2023-02-23T04:43:44.934Z,0.91
2023-02-23T04:48:47.732Z,0.90
2023-02-23T04:53:50.199Z,0.88
2023-02-23T04:58:53.388Z,0.88
2023-02-23T05:04:00.449Z,0.90
2023-02-23T05:09:06.240Z,0.85
2023-02-23T05:14:09.924Z,0.83
2023-02-23T05:19:12.610Z,0.83
2023-02-23T05:24:17.824Z,0.82
2023-02-23T05:29:20.412Z,0.78
2023-02-23T05:34:22.633Z,0.81
2023-02-23T05:39:25.496Z,0.82
2023-02-23T05:44:28.743Z,0.82
2023-02-23T05:49:31.069Z,0.82
2023-02-23T05:54:33.574Z,0.85
2023-02-23T05:59:36.172Z,0.83
2023-02-23T06:04:38.710Z,0.86
2023-02-23T06:09:44.301Z,0.90
2023-02-23T06:14:47.960Z,1.00
2023-02-23T06:19:50.910Z,1.08
2023-02-23T06:24:53.281Z,1.13
2023-02-23T06:29:55.695Z,1.24
2023-02-23T06:34:58.789Z,1.41
2023-02-23T06:40:01.897Z,1.61
2023-02-23T06:45:05.921Z,1.74
2023-02-23T06:50:09.812Z,1.87
2023-02-23T06:55:13.295Z,2.00
2023-02-23T07:00:17.843Z,2.16
2023-02-23T07:05:25.871Z,2.33
2023-02-23T07:10:31.165Z,2.38
2023-02-23T07:15:36.382Z,2.49
2023-02-23T07:20:38.633Z,2.68
2023-02-23T07:25:41.226Z,2.89
2023-02-23T07:30:43.745Z,3.00
2023-02-23T07:35:45.960Z,3.22
2023-02-23T07:40:50.632Z,3.40
2023-02-23T07:45:52.855Z,3.62
2023-02-23T07:50:55.220Z,3.88
2023-02-23T07:55:58.279Z,4.00
2023-02-23T08:01:00.345Z,4.11
2023-02-23T08:06:02.827Z,4.36
2023-02-23T08:11:05.798Z,4.50
2023-02-23T08:16:08.228Z,4.65
2023-02-23T08:21:10.527Z,4.77
2023-02-23T08:26:12.674Z,5.01
2023-02-23T08:31:18.688Z,5.15
2023-02-23T08:36:21.167Z,5.39
2023-02-23T08:41:23.206Z,5.64
2023-02-23T08:46:26.248Z,5.90
2023-02-23T08:51:28.658Z,6.15
2023-02-23T08:56:31.859Z,6.43
2023-02-23T09:01:34.910Z,6.69
2023-02-23T09:06:37.541Z,6.99
2023-02-23T09:11:39.498Z,7.22
2023-02-23T09:16:41.719Z,7.43
2023-02-23T09:21:44.655Z,7.55
2023-02-23T09:26:46.618Z,7.73
2023-02-23T09:31:48.873Z,7.89
2023-02-23T09:36:52.201Z,8.12
2023-02-23T09:42:13.976Z,8.32
2023-02-23T09:47:36.539Z,8.53
2023-02-23T09:53:05.782Z,8.74
2023-02-23T09:58:25.237Z,8.98
2023-02-23T10:03:33.457Z,9.16
2023-02-23T10:08:47.120Z,9.38
2023-02-23T10:13:49.142Z,9.60
2023-02-23T10:19:00.941Z,9.83
2023-02-23T10:24:14.153Z,10.04
2023-02-23T10:29:31.376Z,10.41
2023-02-23T10:34:35.365Z,10.52
2023-02-23T10:39:37.659Z,10.68
2023-02-23T10:44:45.771Z,10.72
2023-02-23T10:49:51.849Z,10.76
2023-02-23T10:54:54.224Z,10.88
2023-02-23T11:00:17.123Z,10.99
2023-02-23T11:05:46.067Z,11.20
2023-02-23T11:10:59.934Z,11.42
2023-02-23T11:16:10.483Z,11.56
2023-02-23T11:21:21.952Z,11.74
2023-02-23T11:26:32.848Z,11.90
2023-02-23T11:31:36.693Z,12.17
2023-02-23T11:36:39.227Z,12.35
2023-02-23T11:41:41.966Z,12.52
2023-02-23T11:46:45.916Z,12.72
2023-02-23T11:51:50.634Z,12.94
2023-02-23T11:56:55.417Z,13.07
2023-02-23T12:02:19.198Z,13.08
2023-02-23T12:07:43.102Z,13.19
2023-02-23T12:13:02.695Z,13.38
2023-02-23T12:18:19.158Z,13.56
2023-02-23T12:23:29.003Z,13.63
2023-02-23T12:28:42.351Z,13.67
2023-02-23T12:33:48.667Z,13.70
2023-02-23T12:39:04.711Z,13.69
2023-02-23T12:44:32.214Z,13.74
2023-02-23T12:49:57.545Z,13.77
2023-02-23T12:55:00.948Z,13.86
2023-02-23T13:00:30.689Z,13.90
2023-02-23T13:05:39.685Z,13.95
2023-02-23T13:11:07.152Z,14.06
2023-02-23T13:16:33.062Z,14.10
2023-02-23T13:21:40.599Z,14.11
2023-02-23T13:27:03.497Z,14.06
2023-02-23T13:32:16.351Z,14.02
2023-02-23T13:37:26.393Z,14.02
2023-02-23T13:43:07.214Z,14.13
2023-02-23T13:48:28.185Z,14.24
2023-02-23T13:54:12.023Z,14.40
2023-02-23T13:59:46.122Z,14.51
2023-02-23T14:04:54.005Z,14.54
2023-02-23T14:10:06.672Z,14.48
2023-02-23T14:15:28.304Z,14.40
2023-02-23T14:20:39.677Z,14.28
2023-02-23T14:25:55.160Z,14.15
2023-02-23T14:31:11.516Z,14.06
2023-02-23T14:36:22.328Z,13.95
2023-02-23T14:41:35.446Z,13.76
2023-02-23T14:46:38.284Z,13.58
2023-02-23T14:52:08.187Z,13.46
2023-02-23T14:57:18.540Z,13.26
2023-02-23T15:02:24.300Z,13.07
2023-02-23T15:07:40.761Z,12.91
2023-02-23T15:12:43.323Z,12.75
2023-02-23T15:17:47.802Z,12.63
2023-02-23T15:22:55.142Z,12.56
2023-02-23T15:28:00.386Z,12.45
2023-02-23T15:33:12.360Z,12.33
2023-02-23T15:38:42.997Z,12.18
2023-02-23T15:43:46.163Z,11.96
2023-02-23T15:48:50.434Z,11.82
2023-02-23T15:53:54.102Z,11.70
2023-02-23T15:59:13.814Z,11.57
2023-02-23T16:04:19.637Z,11.39
2023-02-23T16:09:23.888Z,11.23
2023-02-23T16:14:30.711Z,11.10
2023-02-23T16:19:32.746Z,10.96
2023-02-23T16:24:37.493Z,10.84
2023-02-23T16:29:42.020Z,10.77
2023-02-23T16:35:00.954Z,10.63
2023-02-23T16:40:03.340Z,10.49
2023-02-23T16:45:16.063Z,10.36
2023-02-23T16:50:24.391Z,10.24
2023-02-23T16:55:28.184Z,10.22
2023-02-23T17:00:33.371Z,10.24
2023-02-23T17:05:35.429Z,10.25
2023-02-23T17:10:38.002Z,10.28
2023-02-23T17:15:48.034Z,10.26
2023-02-23T17:20:51.413Z,10.28
2023-02-23T17:25:55.937Z,10.27
2023-02-23T17:30:58.278Z,10.24
2023-02-23T17:36:05.085Z,10.21
2023-02-23T17:41:14.981Z,10.23
2023-02-23T17:46:17.479Z,10.21
2023-02-23T17:51:22.631Z,10.15
2023-02-23T17:56:24.921Z,10.11
2023-02-23T18:01:27.276Z,10.09
2023-02-23T18:06:30.830Z,10.06
2023-02-23T18:11:37.428Z,10.03
2023-02-23T18:16:46.574Z,10.04
2023-02-23T18:21:48.821Z,10.05
2023-02-23T18:26:51.602Z,10.03
2023-02-23T18:31:53.707Z,10.00
2023-02-23T18:37:02.233Z,9.98
2023-02-23T18:42:05.039Z,9.98
2023-02-23T18:47:17.225Z,9.98
2023-02-23T18:52:19.791Z,9.98
2023-02-23T18:57:23.631Z,9.97
2023-02-23T19:02:27.512Z,9.94
2023-02-23T19:07:30.860Z,9.96
2023-02-23T19:12:33.479Z,9.98
2023-02-23T19:17:36.791Z,9.99
2023-02-23T19:22:41.355Z,9.99
2023-02-23T19:27:43.701Z,9.98
2023-02-23T19:32:45.973Z,9.96
2023-02-23T19:37:50.552Z,9.91
2023-02-23T19:42:53.323Z,9.87
2023-02-23T19:47:55.594Z,9.85
2023-02-23T19:52:58.138Z,9.80
2023-02-23T19:58:03.179Z,9.80
2023-02-23T20:03:07.037Z,9.81
2023-02-23T20:08:10.118Z,9.86
2023-02-23T20:13:16.005Z,9.90
2023-02-23T20:18:21.176Z,9.95
2023-02-23T20:23:25.992Z,10.00
2023-02-23T20:28:28.426Z,10.03
2023-02-23T20:33:31.708Z,9.99
2023-02-23T20:38:33.956Z,10.02
2023-02-23T20:43:38.501Z,10.05
2023-02-23T20:48:41.071Z,10.06
2023-02-23T20:53:46.556Z,10.09
2023-02-23T20:58:48.511Z,10.00
2023-02-23T21:03:51.676Z,9.97
2023-02-23T21:09:03.211Z,9.95
2023-02-23T21:14:08.393Z,9.90
2023-02-23T21:19:11.408Z,9.82
2023-02-23T21:24:15.245Z,9.77
2023-02-23T21:29:18.138Z,9.70
2023-02-23T21:34:20.294Z,9.68
2023-02-23T21:39:22.995Z,9.61
2023-02-23T21:44:25.134Z,9.57
2023-02-23T21:49:27.328Z,9.54
2023-02-23T21:54:29.287Z,9.53
2023-02-23T21:59:34.633Z,9.51
2023-02-23T22:04:37.283Z,9.52
2023-02-23T22:09:39.863Z,9.42
2023-02-23T22:14:44.802Z,9.41
2023-02-23T22:19:50.419Z,9.38
2023-02-23T22:24:52.370Z,9.41
2023-02-23T22:29:54.302Z,9.42
2023-02-23T22:34:56.283Z,9.38
2023-02-23T22:40:00.291Z,9.28
2023-02-23T22:45:08.477Z,9.28
2023-02-23T22:50:13.967Z,9.21
2023-02-23T22:55:16.175Z,9.18
2023-02-23T23:00:18.839Z,9.13
2023-02-23T23:05:21.748Z,9.17
2023-02-23T23:10:27.103Z,9.15
2023-02-23T23:15:29.852Z,9.15
2023-02-23T23:20:32.071Z,9.10
2023-02-23T23:25:34.128Z,9.07
2023-02-23T23:30:36.197Z,9.07
2023-02-23T23:35:38.282Z,9.02
2023-02-23T23:40:47.025Z,8.97
2023-02-23T23:45:51.767Z,8.92
2023-02-23T23:50:56.247Z,8.87
2023-02-23T23:56:05.557Z,8.86
